sensor_id;sensor_type;location;lat;lon;timestamp;P1;durP1;ratioP1;P2;durP2;ratioP2
36359;SDS011;22388;52.432;20.662;2023-07-02T00:02:21;22.33;;;14.38;;
36359;SDS011;22388;52.432;20.662;2023-07-02T00:05:47;21.00;;;14.60;;
36359;SDS011;22388;52.432;20.662;2023-07-02T00:09:12;19.80;;;13.32;;
36359;SDS011;22388;52.432;20.662;2023-07-02T00:12:36;23.08;;;14.52;;
36359;SDS011;22388;52.432;20.662;2023-07-02T00:16:00;21.98;;;15.07;;
36359;SDS011;22388;52.432;20.662;2023-07-02T00:19:24;21.80;;;15.25;;
36359;SDS011;22388;52.432;20.662;2023-07-02T00:22:49;23.60;;;14.93;;
36359;SDS011;22388;52.432;20.662;2023-07-02T00:26:13;24.13;;;16.02;;
36359;SDS011;22388;52.432;20.662;2023-07-02T00:29:37;22.45;;;15.55;;
36359;SDS011;22388;52.432;20.662;2023-07-02T00:33:01;23.73;;;15.57;;
36359;SDS011;22388;52.432;20.662;2023-07-02T00:36:29;24.38;;;15.82;;
36359;SDS011;22388;52.432;20.662;2023-07-02T00:39:54;24.25;;;16.00;;
36359;SDS011;22388;52.432;20.662;2023-07-02T00:43:18;23.42;;;15.68;;
36359;SDS011;22388;52.432;20.662;2023-07-02T00:46:42;23.30;;;16.60;;
36359;SDS011;22388;52.432;20.662;2023-07-02T00:50:06;23.90;;;16.20;;
36359;SDS011;22388;52.432;20.662;2023-07-02T00:53:31;24.83;;;16.40;;
36359;SDS011;22388;52.432;20.662;2023-07-02T00:56:55;23.60;;;16.98;;
36359;SDS011;22388;52.432;20.662;2023-07-02T01:00:22;23.85;;;16.77;;
36359;SDS011;22388;52.432;20.662;2023-07-02T01:03:49;25.58;;;18.55;;
36359;SDS011;22388;52.432;20.662;2023-07-02T01:07:14;25.52;;;19.15;;
36359;SDS011;22388;52.432;20.662;2023-07-02T01:10:39;26.02;;;18.08;;
36359;SDS011;22388;52.432;20.662;2023-07-02T01:14:05;27.00;;;18.30;;
36359;SDS011;22388;52.432;20.662;2023-07-02T01:17:32;29.10;;;17.90;;
36359;SDS011;22388;52.432;20.662;2023-07-02T01:20:58;25.67;;;18.30;;
36359;SDS011;22388;52.432;20.662;2023-07-02T01:24:22;25.42;;;17.15;;
36359;SDS011;22388;52.432;20.662;2023-07-02T01:27:50;27.60;;;19.73;;
36359;SDS011;22388;52.432;20.662;2023-07-02T01:31:15;24.77;;;18.70;;
36359;SDS011;22388;52.432;20.662;2023-07-02T01:34:40;31.00;;;19.55;;
36359;SDS011;22388;52.432;20.662;2023-07-02T01:38:04;28.23;;;18.83;;
36359;SDS011;22388;52.432;20.662;2023-07-02T01:41:28;31.65;;;20.02;;
36359;SDS011;22388;52.432;20.662;2023-07-02T01:44:52;26.15;;;18.73;;
36359;SDS011;22388;52.432;20.662;2023-07-02T01:48:16;29.00;;;20.30;;
36359;SDS011;22388;52.432;20.662;2023-07-02T01:51:44;27.50;;;18.80;;
36359;SDS011;22388;52.432;20.662;2023-07-02T01:55:08;27.63;;;19.30;;
36359;SDS011;22388;52.432;20.662;2023-07-02T01:58:32;26.33;;;19.20;;
36359;SDS011;22388;52.432;20.662;2023-07-02T02:01:57;31.58;;;20.15;;
36359;SDS011;22388;52.432;20.662;2023-07-02T02:05:21;28.70;;;19.92;;
36359;SDS011;22388;52.432;20.662;2023-07-02T02:08:46;30.38;;;21.13;;
36359;SDS011;22388;52.432;20.662;2023-07-02T02:12:11;28.13;;;20.50;;
36359;SDS011;22388;52.432;20.662;2023-07-02T02:15:35;28.67;;;20.08;;
36359;SDS011;22388;52.432;20.662;2023-07-02T02:18:59;29.85;;;20.38;;
36359;SDS011;22388;52.432;20.662;2023-07-02T02:22:23;30.50;;;19.90;;
36359;SDS011;22388;52.432;20.662;2023-07-02T02:25:47;29.48;;;19.83;;
36359;SDS011;22388;52.432;20.662;2023-07-02T02:29:11;29.35;;;21.50;;
36359;SDS011;22388;52.432;20.662;2023-07-02T02:32:36;28.40;;;20.75;;
36359;SDS011;22388;52.432;20.662;2023-07-02T02:36:01;25.85;;;19.00;;
36359;SDS011;22388;52.432;20.662;2023-07-02T02:39:25;29.60;;;19.48;;
36359;SDS011;22388;52.432;20.662;2023-07-02T02:42:50;26.80;;;19.23;;
36359;SDS011;22388;52.432;20.662;2023-07-02T02:46:19;26.40;;;19.73;;
36359;SDS011;22388;52.432;20.662;2023-07-02T02:49:43;27.65;;;19.45;;
36359;SDS011;22388;52.432;20.662;2023-07-02T02:53:08;28.90;;;19.98;;
36359;SDS011;22388;52.432;20.662;2023-07-02T02:56:32;26.27;;;19.40;;
36359;SDS011;22388;52.432;20.662;2023-07-02T02:59:57;25.83;;;18.85;;
36359;SDS011;22388;52.432;20.662;2023-07-02T03:03:21;26.77;;;18.98;;
36359;SDS011;22388;52.432;20.662;2023-07-02T03:06:49;26.80;;;19.48;;
36359;SDS011;22388;52.432;20.662;2023-07-02T03:10:14;29.73;;;19.80;;
36359;SDS011;22388;52.432;20.662;2023-07-02T03:13:38;25.63;;;19.42;;
36359;SDS011;22388;52.432;20.662;2023-07-02T03:17:03;28.48;;;19.90;;
36359;SDS011;22388;52.432;20.662;2023-07-02T03:20:28;29.75;;;19.58;;
36359;SDS011;22388;52.432;20.662;2023-07-02T03:23:52;27.52;;;19.77;;
36359;SDS011;22388;52.432;20.662;2023-07-02T03:27:16;26.13;;;19.33;;
36359;SDS011;22388;52.432;20.662;2023-07-02T03:30:40;27.42;;;20.48;;
36359;SDS011;22388;52.432;20.662;2023-07-02T03:34:06;25.77;;;19.48;;
36359;SDS011;22388;52.432;20.662;2023-07-02T03:37:31;30.77;;;20.60;;
36359;SDS011;22388;52.432;20.662;2023-07-02T03:40:55;28.02;;;19.50;;
36359;SDS011;22388;52.432;20.662;2023-07-02T03:44:19;25.13;;;19.15;;
36359;SDS011;22388;52.432;20.662;2023-07-02T03:47:43;27.30;;;18.55;;
36359;SDS011;22388;52.432;20.662;2023-07-02T03:51:08;27.20;;;19.33;;
36359;SDS011;22388;52.432;20.662;2023-07-02T03:54:32;27.60;;;19.05;;
36359;SDS011;22388;52.432;20.662;2023-07-02T03:57:56;30.42;;;19.15;;
36359;SDS011;22388;52.432;20.662;2023-07-02T04:01:20;27.67;;;18.42;;
36359;SDS011;22388;52.432;20.662;2023-07-02T04:04:44;23.90;;;16.95;;
36359;SDS011;22388;52.432;20.662;2023-07-02T04:08:10;25.20;;;18.23;;
36359;SDS011;22388;52.432;20.662;2023-07-02T04:11:34;26.83;;;17.05;;
36359;SDS011;22388;52.432;20.662;2023-07-02T04:14:58;26.02;;;18.33;;
36359;SDS011;22388;52.432;20.662;2023-07-02T04:18:22;27.92;;;18.02;;
36359;SDS011;22388;52.432;20.662;2023-07-02T04:21:47;24.85;;;17.50;;
36359;SDS011;22388;52.432;20.662;2023-07-02T04:25:11;25.13;;;16.58;;
36359;SDS011;22388;52.432;20.662;2023-07-02T04:28:38;27.05;;;17.08;;
36359;SDS011;22388;52.432;20.662;2023-07-02T04:32:02;23.33;;;16.45;;
36359;SDS011;22388;52.432;20.662;2023-07-02T04:35:26;21.75;;;16.35;;
36359;SDS011;22388;52.432;20.662;2023-07-02T04:38:51;25.45;;;16.73;;
36359;SDS011;22388;52.432;20.662;2023-07-02T04:42:20;23.02;;;15.60;;
36359;SDS011;22388;52.432;20.662;2023-07-02T04:45:45;23.73;;;16.60;;
36359;SDS011;22388;52.432;20.662;2023-07-02T04:49:09;21.85;;;15.40;;
36359;SDS011;22388;52.432;20.662;2023-07-02T04:52:33;24.00;;;16.08;;
36359;SDS011;22388;52.432;20.662;2023-07-02T04:55:57;21.25;;;14.55;;
36359;SDS011;22388;52.432;20.662;2023-07-02T04:59:24;19.85;;;14.23;;
36359;SDS011;22388;52.432;20.662;2023-07-02T05:02:48;20.17;;;13.57;;
36359;SDS011;22388;52.432;20.662;2023-07-02T05:06:12;21.17;;;13.00;;
36359;SDS011;22388;52.432;20.662;2023-07-02T05:09:36;22.58;;;13.35;;
36359;SDS011;22388;52.432;20.662;2023-07-02T05:13:00;18.55;;;12.52;;
36359;SDS011;22388;52.432;20.662;2023-07-02T05:16:24;24.08;;;13.18;;
36359;SDS011;22388;52.432;20.662;2023-07-02T05:19:48;21.40;;;12.70;;
36359;SDS011;22388;52.432;20.662;2023-07-02T05:23:13;22.40;;;12.90;;
36359;SDS011;22388;52.432;20.662;2023-07-02T05:26:37;18.52;;;11.85;;
36359;SDS011;22388;52.432;20.662;2023-07-02T05:30:01;17.42;;;11.98;;
36359;SDS011;22388;52.432;20.662;2023-07-02T05:33:25;23.25;;;11.75;;
36359;SDS011;22388;52.432;20.662;2023-07-02T05:36:49;18.98;;;12.07;;
36359;SDS011;22388;52.432;20.662;2023-07-02T05:40:13;17.52;;;11.73;;
36359;SDS011;22388;52.432;20.662;2023-07-02T05:43:47;20.30;;;10.55;;
36359;SDS011;22388;52.432;20.662;2023-07-02T05:47:11;18.70;;;10.68;;
36359;SDS011;22388;52.432;20.662;2023-07-02T05:50:35;19.52;;;10.93;;
36359;SDS011;22388;52.432;20.662;2023-07-02T05:53:59;17.27;;;10.95;;
36359;SDS011;22388;52.432;20.662;2023-07-02T05:57:23;16.00;;;10.55;;
36359;SDS011;22388;52.432;20.662;2023-07-02T06:00:48;19.83;;;10.60;;
36359;SDS011;22388;52.432;20.662;2023-07-02T06:04:12;16.15;;;10.50;;
36359;SDS011;22388;52.432;20.662;2023-07-02T06:07:36;17.77;;;10.43;;
36359;SDS011;22388;52.432;20.662;2023-07-02T06:11:00;15.68;;;9.43;;
36359;SDS011;22388;52.432;20.662;2023-07-02T06:14:24;16.45;;;10.00;;
36359;SDS011;22388;52.432;20.662;2023-07-02T06:17:48;14.98;;;9.80;;
36359;SDS011;22388;52.432;20.662;2023-07-02T06:21:12;14.35;;;9.10;;
36359;SDS011;22388;52.432;20.662;2023-07-02T06:24:36;14.45;;;8.32;;
36359;SDS011;22388;52.432;20.662;2023-07-02T06:28:00;14.00;;;8.95;;
36359;SDS011;22388;52.432;20.662;2023-07-02T06:31:24;14.07;;;8.10;;
36359;SDS011;22388;52.432;20.662;2023-07-02T06:34:48;13.88;;;7.75;;
36359;SDS011;22388;52.432;20.662;2023-07-02T06:38:14;14.43;;;7.63;;
36359;SDS011;22388;52.432;20.662;2023-07-02T06:41:38;10.10;;;6.93;;
36359;SDS011;22388;52.432;20.662;2023-07-02T06:45:02;11.32;;;7.45;;
36359;SDS011;22388;52.432;20.662;2023-07-02T06:48:27;12.18;;;7.10;;
36359;SDS011;22388;52.432;20.662;2023-07-02T06:51:51;14.05;;;7.00;;
36359;SDS011;22388;52.432;20.662;2023-07-02T06:55:15;13.70;;;6.18;;
36359;SDS011;22388;52.432;20.662;2023-07-02T06:58:41;9.05;;;5.68;;
36359;SDS011;22388;52.432;20.662;2023-07-02T07:02:06;10.65;;;5.15;;
36359;SDS011;22388;52.432;20.662;2023-07-02T07:05:30;10.65;;;5.45;;
36359;SDS011;22388;52.432;20.662;2023-07-02T07:08:54;10.10;;;5.32;;
36359;SDS011;22388;52.432;20.662;2023-07-02T07:12:19;14.30;;;5.57;;
36359;SDS011;22388;52.432;20.662;2023-07-02T07:15:43;13.52;;;5.68;;
36359;SDS011;22388;52.432;20.662;2023-07-02T07:19:07;10.70;;;6.05;;
36359;SDS011;22388;52.432;20.662;2023-07-02T07:22:31;11.23;;;6.40;;
36359;SDS011;22388;52.432;20.662;2023-07-02T07:25:55;13.43;;;6.25;;
36359;SDS011;22388;52.432;20.662;2023-07-02T07:29:19;10.45;;;6.22;;
36359;SDS011;22388;52.432;20.662;2023-07-02T07:32:48;10.85;;;6.32;;
36359;SDS011;22388;52.432;20.662;2023-07-02T07:36:12;11.25;;;6.43;;
36359;SDS011;22388;52.432;20.662;2023-07-02T07:39:36;10.40;;;6.30;;
36359;SDS011;22388;52.432;20.662;2023-07-02T07:43:00;11.13;;;6.50;;
36359;SDS011;22388;52.432;20.662;2023-07-02T07:46:26;11.68;;;6.20;;
36359;SDS011;22388;52.432;20.662;2023-07-02T07:49:50;11.02;;;6.88;;
36359;SDS011;22388;52.432;20.662;2023-07-02T07:53:14;11.43;;;6.35;;
36359;SDS011;22388;52.432;20.662;2023-07-02T07:56:38;11.63;;;6.43;;
36359;SDS011;22388;52.432;20.662;2023-07-02T08:00:03;12.02;;;6.82;;
36359;SDS011;22388;52.432;20.662;2023-07-02T08:03:27;11.32;;;6.95;;
36359;SDS011;22388;52.432;20.662;2023-07-02T08:06:51;9.65;;;7.32;;
36359;SDS011;22388;52.432;20.662;2023-07-02T08:10:15;12.48;;;7.88;;
36359;SDS011;22388;52.432;20.662;2023-07-02T08:13:39;13.85;;;7.82;;
36359;SDS011;22388;52.432;20.662;2023-07-02T08:17:04;10.63;;;7.68;;
36359;SDS011;22388;52.432;20.662;2023-07-02T08:20:28;11.82;;;8.05;;
36359;SDS011;22388;52.432;20.662;2023-07-02T08:23:53;12.43;;;8.05;;
36359;SDS011;22388;52.432;20.662;2023-07-02T08:27:17;10.32;;;7.65;;
36359;SDS011;22388;52.432;20.662;2023-07-02T08:30:41;15.50;;;8.07;;
36359;SDS011;22388;52.432;20.662;2023-07-02T08:34:06;13.18;;;7.93;;
36359;SDS011;22388;52.432;20.662;2023-07-02T08:37:30;12.00;;;7.65;;
36359;SDS011;22388;52.432;20.662;2023-07-02T08:40:54;11.93;;;7.70;;
36359;SDS011;22388;52.432;20.662;2023-07-02T08:44:19;9.80;;;6.90;;
36359;SDS011;22388;52.432;20.662;2023-07-02T08:47:44;11.32;;;6.78;;
36359;SDS011;22388;52.432;20.662;2023-07-02T08:51:08;11.73;;;6.65;;
36359;SDS011;22388;52.432;20.662;2023-07-02T08:54:33;9.10;;;5.60;;
36359;SDS011;22388;52.432;20.662;2023-07-02T08:57:58;11.23;;;5.88;;
36359;SDS011;22388;52.432;20.662;2023-07-02T09:01:22;9.77;;;5.80;;
36359;SDS011;22388;52.432;20.662;2023-07-02T09:05:03;7.43;;;5.13;;
36359;SDS011;22388;52.432;20.662;2023-07-02T09:08:27;10.65;;;5.07;;
36359;SDS011;22388;52.432;20.662;2023-07-02T09:11:52;10.38;;;4.82;;
36359;SDS011;22388;52.432;20.662;2023-07-02T09:15:16;7.70;;;4.18;;
36359;SDS011;22388;52.432;20.662;2023-07-02T09:18:59;6.22;;;3.30;;
36359;SDS011;22388;52.432;20.662;2023-07-02T09:22:27;5.38;;;3.50;;
36359;SDS011;22388;52.432;20.662;2023-07-02T09:26:01;7.85;;;3.40;;
36359;SDS011;22388;52.432;20.662;2023-07-02T09:29:28;4.10;;;2.92;;
36359;SDS011;22388;52.432;20.662;2023-07-02T09:32:53;3.47;;;2.15;;
36359;SDS011;22388;52.432;20.662;2023-07-02T09:36:17;4.55;;;2.15;;
36359;SDS011;22388;52.432;20.662;2023-07-02T09:39:41;3.80;;;2.08;;
36359;SDS011;22388;52.432;20.662;2023-07-02T09:43:18;4.28;;;1.83;;
36359;SDS011;22388;52.432;20.662;2023-07-02T09:46:45;9.32;;;2.15;;
36359;SDS011;22388;52.432;20.662;2023-07-02T09:50:12;5.60;;;1.50;;
36359;SDS011;22388;52.432;20.662;2023-07-02T09:53:37;3.35;;;1.50;;
36359;SDS011;22388;52.432;20.662;2023-07-02T09:57:02;3.35;;;1.48;;
36359;SDS011;22388;52.432;20.662;2023-07-02T10:00:26;2.42;;;1.58;;
36359;SDS011;22388;52.432;20.662;2023-07-02T10:03:51;3.50;;;1.73;;
36359;SDS011;22388;52.432;20.662;2023-07-02T10:07:30;1.77;;;1.30;;
36359;SDS011;22388;52.432;20.662;2023-07-02T10:11:06;2.13;;;1.30;;
36359;SDS011;22388;52.432;20.662;2023-07-02T10:14:49;5.68;;;1.35;;
36359;SDS011;22388;52.432;20.662;2023-07-02T10:18:14;2.30;;;1.40;;
36359;SDS011;22388;52.432;20.662;2023-07-02T10:21:38;2.55;;;1.67;;
36359;SDS011;22388;52.432;20.662;2023-07-02T10:25:09;2.08;;;1.48;;
36359;SDS011;22388;52.432;20.662;2023-07-02T10:28:36;3.85;;;1.48;;
36359;SDS011;22388;52.432;20.662;2023-07-02T10:32:00;2.97;;;1.50;;
36359;SDS011;22388;52.432;20.662;2023-07-02T10:35:38;2.22;;;1.58;;
36359;SDS011;22388;52.432;20.662;2023-07-02T10:39:02;3.50;;;1.55;;
36359;SDS011;22388;52.432;20.662;2023-07-02T10:42:29;1.90;;;1.60;;
36359;SDS011;22388;52.432;20.662;2023-07-02T10:45:55;5.57;;;1.73;;
36359;SDS011;22388;52.432;20.662;2023-07-02T10:49:19;1.90;;;1.30;;
36359;SDS011;22388;52.432;20.662;2023-07-02T10:52:44;2.88;;;1.50;;
36359;SDS011;22388;52.432;20.662;2023-07-02T10:56:15;3.17;;;1.52;;
36359;SDS011;22388;52.432;20.662;2023-07-02T10:59:45;3.72;;;1.63;;
36359;SDS011;22388;52.432;20.662;2023-07-02T11:03:17;5.05;;;1.75;;
36359;SDS011;22388;52.432;20.662;2023-07-02T11:06:41;3.55;;;1.60;;
36359;SDS011;22388;52.432;20.662;2023-07-02T11:10:08;2.17;;;1.35;;
36359;SDS011;22388;52.432;20.662;2023-07-02T11:13:33;2.10;;;1.33;;
36359;SDS011;22388;52.432;20.662;2023-07-02T11:16:58;6.40;;;1.65;;
36359;SDS011;22388;52.432;20.662;2023-07-02T11:20:33;4.95;;;1.60;;
36359;SDS011;22388;52.432;20.662;2023-07-02T11:24:01;2.67;;;1.50;;
36359;SDS011;22388;52.432;20.662;2023-07-02T11:27:45;3.15;;;1.70;;
36359;SDS011;22388;52.432;20.662;2023-07-02T11:31:13;2.60;;;1.50;;
36359;SDS011;22388;52.432;20.662;2023-07-02T11:34:38;3.50;;;1.63;;
36359;SDS011;22388;52.432;20.662;2023-07-02T11:38:02;5.80;;;1.70;;
36359;SDS011;22388;52.432;20.662;2023-07-02T11:41:36;4.43;;;1.73;;
36359;SDS011;22388;52.432;20.662;2023-07-02T11:45:00;5.72;;;1.63;;
36359;SDS011;22388;52.432;20.662;2023-07-02T11:48:24;3.35;;;1.40;;
36359;SDS011;22388;52.432;20.662;2023-07-02T11:51:49;2.85;;;1.35;;
36359;SDS011;22388;52.432;20.662;2023-07-02T11:55:13;1.77;;;1.45;;
36359;SDS011;22388;52.432;20.662;2023-07-02T11:58:38;4.47;;;1.30;;
36359;SDS011;22388;52.432;20.662;2023-07-02T12:02:03;6.65;;;1.60;;
36359;SDS011;22388;52.432;20.662;2023-07-02T12:05:27;13.70;;;2.00;;
36359;SDS011;22388;52.432;20.662;2023-07-02T12:08:51;13.82;;;2.05;;
36359;SDS011;22388;52.432;20.662;2023-07-02T12:12:15;4.75;;;1.52;;
36359;SDS011;22388;52.432;20.662;2023-07-02T12:15:40;2.65;;;1.40;;
36359;SDS011;22388;52.432;20.662;2023-07-02T12:19:04;5.50;;;1.50;;
36359;SDS011;22388;52.432;20.662;2023-07-02T12:22:28;2.53;;;1.45;;
36359;SDS011;22388;52.432;20.662;2023-07-02T12:25:52;17.33;;;2.25;;
36359;SDS011;22388;52.432;20.662;2023-07-02T12:29:16;24.50;;;3.25;;
36359;SDS011;22388;52.432;20.662;2023-07-02T12:32:42;2.28;;;1.60;;
36359;SDS011;22388;52.432;20.662;2023-07-02T12:36:07;5.85;;;1.40;;
36359;SDS011;22388;52.432;20.662;2023-07-02T12:39:31;7.38;;;1.60;;
36359;SDS011;22388;52.432;20.662;2023-07-02T12:42:55;5.70;;;1.50;;
36359;SDS011;22388;52.432;20.662;2023-07-02T12:46:19;9.48;;;1.63;;
36359;SDS011;22388;52.432;20.662;2023-07-02T12:49:44;18.77;;;1.60;;
36359;SDS011;22388;52.432;20.662;2023-07-02T12:53:18;3.03;;;1.60;;
36359;SDS011;22388;52.432;20.662;2023-07-02T12:56:42;5.47;;;1.75;;
36359;SDS011;22388;52.432;20.662;2023-07-02T13:00:07;5.85;;;1.50;;
36359;SDS011;22388;52.432;20.662;2023-07-02T13:03:31;5.07;;;1.60;;
36359;SDS011;22388;52.432;20.662;2023-07-02T13:06:55;2.53;;;1.55;;
36359;SDS011;22388;52.432;20.662;2023-07-02T13:10:19;4.80;;;1.67;;
36359;SDS011;22388;52.432;20.662;2023-07-02T13:13:43;5.50;;;1.20;;
36359;SDS011;22388;52.432;20.662;2023-07-02T13:17:07;6.38;;;1.40;;
36359;SDS011;22388;52.432;20.662;2023-07-02T13:20:32;3.10;;;1.30;;
36359;SDS011;22388;52.432;20.662;2023-07-02T13:23:56;3.63;;;1.45;;
36359;SDS011;22388;52.432;20.662;2023-07-02T13:27:20;4.50;;;1.60;;
36359;SDS011;22388;52.432;20.662;2023-07-02T13:30:46;5.18;;;1.60;;
36359;SDS011;22388;52.432;20.662;2023-07-02T13:34:10;6.10;;;1.75;;
36359;SDS011;22388;52.432;20.662;2023-07-02T13:37:34;4.57;;;1.58;;
36359;SDS011;22388;52.432;20.662;2023-07-02T13:40:59;2.50;;;1.40;;
36359;SDS011;22388;52.432;20.662;2023-07-02T13:44:23;3.78;;;1.70;;
36359;SDS011;22388;52.432;20.662;2023-07-02T13:47:47;6.47;;;1.73;;
36359;SDS011;22388;52.432;20.662;2023-07-02T13:51:11;2.67;;;1.45;;
36359;SDS011;22388;52.432;20.662;2023-07-02T13:54:37;5.13;;;1.70;;
36359;SDS011;22388;52.432;20.662;2023-07-02T13:58:01;3.42;;;1.73;;
36359;SDS011;22388;52.432;20.662;2023-07-02T14:01:26;9.15;;;2.03;;
36359;SDS011;22388;52.432;20.662;2023-07-02T14:04:50;4.70;;;1.70;;
36359;SDS011;22388;52.432;20.662;2023-07-02T14:08:15;4.20;;;1.80;;
36359;SDS011;22388;52.432;20.662;2023-07-02T14:11:40;8.45;;;1.80;;
36359;SDS011;22388;52.432;20.662;2023-07-02T14:15:05;7.45;;;1.85;;
36359;SDS011;22388;52.432;20.662;2023-07-02T14:18:29;2.85;;;1.50;;
36359;SDS011;22388;52.432;20.662;2023-07-02T14:21:54;3.25;;;1.60;;
36359;SDS011;22388;52.432;20.662;2023-07-02T14:25:18;6.78;;;1.77;;
36359;SDS011;22388;52.432;20.662;2023-07-02T14:28:42;4.10;;;1.80;;
36359;SDS011;22388;52.432;20.662;2023-07-02T14:32:07;11.30;;;1.80;;
36359;SDS011;22388;52.432;20.662;2023-07-02T14:35:31;5.88;;;1.85;;
36359;SDS011;22388;52.432;20.662;2023-07-02T14:38:55;3.45;;;1.65;;
36359;SDS011;22388;52.432;20.662;2023-07-02T14:42:19;5.03;;;1.75;;
36359;SDS011;22388;52.432;20.662;2023-07-02T14:45:47;5.15;;;1.80;;
36359;SDS011;22388;52.432;20.662;2023-07-02T14:49:12;5.95;;;2.00;;
36359;SDS011;22388;52.432;20.662;2023-07-02T14:52:36;4.97;;;1.98;;
36359;SDS011;22388;52.432;20.662;2023-07-02T14:56:01;8.50;;;2.00;;
36359;SDS011;22388;52.432;20.662;2023-07-02T14:59:25;4.05;;;1.95;;
36359;SDS011;22388;52.432;20.662;2023-07-02T15:02:50;2.80;;;1.92;;
36359;SDS011;22388;52.432;20.662;2023-07-02T15:06:15;7.78;;;1.60;;
36359;SDS011;22388;52.432;20.662;2023-07-02T15:09:39;7.95;;;1.80;;
36359;SDS011;22388;52.432;20.662;2023-07-02T15:13:04;5.00;;;1.90;;
36359;SDS011;22388;52.432;20.662;2023-07-02T15:16:28;3.95;;;2.08;;
36359;SDS011;22388;52.432;20.662;2023-07-02T15:19:53;11.52;;;1.95;;
36359;SDS011;22388;52.432;20.662;2023-07-02T15:23:18;3.50;;;2.00;;
36359;SDS011;22388;52.432;20.662;2023-07-02T15:26:42;6.45;;;2.28;;
36359;SDS011;22388;52.432;20.662;2023-07-02T15:30:07;4.60;;;1.88;;
36359;SDS011;22388;52.432;20.662;2023-07-02T15:33:32;5.45;;;1.80;;
36359;SDS011;22388;52.432;20.662;2023-07-02T15:36:56;4.03;;;1.80;;
36359;SDS011;22388;52.432;20.662;2023-07-02T15:40:20;3.83;;;1.90;;
36359;SDS011;22388;52.432;20.662;2023-07-02T15:43:47;7.40;;;1.90;;
36359;SDS011;22388;52.432;20.662;2023-07-02T15:47:12;5.35;;;1.83;;
36359;SDS011;22388;52.432;20.662;2023-07-02T15:50:36;3.60;;;1.75;;
36359;SDS011;22388;52.432;20.662;2023-07-02T15:54:04;3.45;;;1.60;;
36359;SDS011;22388;52.432;20.662;2023-07-02T15:57:28;5.43;;;1.90;;
36359;SDS011;22388;52.432;20.662;2023-07-02T16:00:54;7.88;;;1.85;;
36359;SDS011;22388;52.432;20.662;2023-07-02T16:04:18;3.28;;;1.73;;
36359;SDS011;22388;52.432;20.662;2023-07-02T16:07:42;3.80;;;2.20;;
36359;SDS011;22388;52.432;20.662;2023-07-02T16:11:08;5.05;;;1.90;;
36359;SDS011;22388;52.432;20.662;2023-07-02T16:14:33;3.42;;;1.55;;
36359;SDS011;22388;52.432;20.662;2023-07-02T16:17:57;4.80;;;1.73;;
36359;SDS011;22388;52.432;20.662;2023-07-02T16:21:22;3.92;;;1.90;;
36359;SDS011;22388;52.432;20.662;2023-07-02T16:24:46;4.65;;;1.90;;
36359;SDS011;22388;52.432;20.662;2023-07-02T16:28:17;4.78;;;2.10;;
36359;SDS011;22388;52.432;20.662;2023-07-02T16:31:52;4.68;;;1.95;;
36359;SDS011;22388;52.432;20.662;2023-07-02T16:35:16;7.47;;;1.90;;
36359;SDS011;22388;52.432;20.662;2023-07-02T16:38:40;3.63;;;1.90;;
36359;SDS011;22388;52.432;20.662;2023-07-02T16:42:04;4.47;;;2.15;;
36359;SDS011;22388;52.432;20.662;2023-07-02T16:45:29;5.10;;;1.85;;
36359;SDS011;22388;52.432;20.662;2023-07-02T16:48:53;4.00;;;1.63;;
36359;SDS011;22388;52.432;20.662;2023-07-02T16:52:17;5.45;;;2.00;;
36359;SDS011;22388;52.432;20.662;2023-07-02T16:55:41;2.95;;;1.80;;
36359;SDS011;22388;52.432;20.662;2023-07-02T16:59:07;3.63;;;1.80;;
36359;SDS011;22388;52.432;20.662;2023-07-02T17:02:32;3.78;;;1.77;;
36359;SDS011;22388;52.432;20.662;2023-07-02T17:06:00;4.78;;;1.83;;
36359;SDS011;22388;52.432;20.662;2023-07-02T17:09:32;3.50;;;1.70;;
36359;SDS011;22388;52.432;20.662;2023-07-02T17:12:56;7.28;;;1.83;;
36359;SDS011;22388;52.432;20.662;2023-07-02T17:16:20;7.82;;;2.35;;
36359;SDS011;22388;52.432;20.662;2023-07-02T17:19:46;5.47;;;2.17;;
36359;SDS011;22388;52.432;20.662;2023-07-02T17:23:14;7.85;;;2.10;;
36359;SDS011;22388;52.432;20.662;2023-07-02T17:26:39;4.88;;;2.03;;
36359;SDS011;22388;52.432;20.662;2023-07-02T17:30:06;4.68;;;2.03;;
36359;SDS011;22388;52.432;20.662;2023-07-02T17:33:31;6.35;;;2.33;;
36359;SDS011;22388;52.432;20.662;2023-07-02T17:36:56;8.70;;;2.42;;
36359;SDS011;22388;52.432;20.662;2023-07-02T17:40:21;12.57;;;2.28;;
36359;SDS011;22388;52.432;20.662;2023-07-02T17:43:45;7.75;;;2.63;;
36359;SDS011;22388;52.432;20.662;2023-07-02T17:47:11;8.65;;;2.28;;
36359;SDS011;22388;52.432;20.662;2023-07-02T17:50:36;10.65;;;2.30;;
36359;SDS011;22388;52.432;20.662;2023-07-02T17:54:01;3.92;;;1.90;;
36359;SDS011;22388;52.432;20.662;2023-07-02T17:57:25;7.70;;;2.20;;
36359;SDS011;22388;52.432;20.662;2023-07-02T18:00:50;7.13;;;2.25;;
36359;SDS011;22388;52.432;20.662;2023-07-02T18:04:19;10.93;;;2.20;;
36359;SDS011;22388;52.432;20.662;2023-07-02T18:07:46;14.20;;;2.40;;
36359;SDS011;22388;52.432;20.662;2023-07-02T18:11:10;4.82;;;2.45;;
36359;SDS011;22388;52.432;20.662;2023-07-02T18:14:35;8.98;;;2.50;;
36359;SDS011;22388;52.432;20.662;2023-07-02T18:17:59;6.35;;;2.30;;
36359;SDS011;22388;52.432;20.662;2023-07-02T18:21:24;6.70;;;2.35;;
36359;SDS011;22388;52.432;20.662;2023-07-02T18:24:48;8.05;;;2.33;;
36359;SDS011;22388;52.432;20.662;2023-07-02T18:28:16;11.50;;;2.30;;
36359;SDS011;22388;52.432;20.662;2023-07-02T18:31:40;7.20;;;1.80;;
36359;SDS011;22388;52.432;20.662;2023-07-02T18:35:04;7.05;;;2.20;;
36359;SDS011;22388;52.432;20.662;2023-07-02T18:38:29;6.88;;;2.17;;
36359;SDS011;22388;52.432;20.662;2023-07-02T18:41:59;6.53;;;2.10;;
36359;SDS011;22388;52.432;20.662;2023-07-02T18:45:25;4.38;;;1.95;;
36359;SDS011;22388;52.432;20.662;2023-07-02T18:48:50;6.65;;;2.40;;
36359;SDS011;22388;52.432;20.662;2023-07-02T18:52:15;5.95;;;2.40;;
36359;SDS011;22388;52.432;20.662;2023-07-02T18:55:39;4.45;;;2.03;;
36359;SDS011;22388;52.432;20.662;2023-07-02T18:59:03;10.38;;;2.53;;
36359;SDS011;22388;52.432;20.662;2023-07-02T19:02:30;8.65;;;2.58;;
36359;SDS011;22388;52.432;20.662;2023-07-02T19:05:54;4.88;;;2.30;;
36359;SDS011;22388;52.432;20.662;2023-07-02T19:09:21;7.65;;;2.65;;
36359;SDS011;22388;52.432;20.662;2023-07-02T19:12:45;7.45;;;2.72;;
36359;SDS011;22388;52.432;20.662;2023-07-02T19:16:10;9.70;;;2.90;;
36359;SDS011;22388;52.432;20.662;2023-07-02T19:19:36;6.60;;;2.50;;
36359;SDS011;22388;52.432;20.662;2023-07-02T19:23:00;9.55;;;3.30;;
36359;SDS011;22388;52.432;20.662;2023-07-02T19:26:25;7.75;;;2.55;;
36359;SDS011;22388;52.432;20.662;2023-07-02T19:29:49;8.18;;;3.08;;
36359;SDS011;22388;52.432;20.662;2023-07-02T19:33:13;7.82;;;2.90;;
36359;SDS011;22388;52.432;20.662;2023-07-02T19:36:38;7.47;;;2.55;;
36359;SDS011;22388;52.432;20.662;2023-07-02T19:40:02;11.70;;;2.72;;
36359;SDS011;22388;52.432;20.662;2023-07-02T19:43:29;9.52;;;2.88;;
36359;SDS011;22388;52.432;20.662;2023-07-02T19:46:53;11.85;;;2.95;;
36359;SDS011;22388;52.432;20.662;2023-07-02T19:50:18;7.55;;;2.80;;
36359;SDS011;22388;52.432;20.662;2023-07-02T19:53:43;10.10;;;3.25;;
36359;SDS011;22388;52.432;20.662;2023-07-02T19:57:10;13.43;;;3.15;;
36359;SDS011;22388;52.432;20.662;2023-07-02T20:00:34;7.60;;;3.42;;
36359;SDS011;22388;52.432;20.662;2023-07-02T20:03:58;7.88;;;2.70;;